Time;durP1;ratioP1;P1;durP2;ratioP2;P2;SDS_P1;SDS_P2;PMS_P1;PMS_P2;Temp;Humidity;BMP_temperature;BMP_pressure;BME280_temperature;BME280_humidity;BME280_pressure;Samples;Min_cycle;Max_cycle;Signal;HPM_P1;HPM_P2
2023/07/30 00:00:56;;;;;;;6.20;2.90;;;22.10;54.00;;;;;;4978351;28;20031;-64
2023/07/30 00:03:23;;;;;;;4.85;2.83;;;21.80;54.70;;;;;;4978748;28;20030;-63
2023/07/30 00:05:55;;;;;;;4.47;2.70;;;22.00;54.20;;;;;;4979332;28;20054;-63
2023/07/30 00:08:23;;;;;;;4.20;2.67;;;22.00;53.80;;;;;;4979407;28;20086;-63
2023/07/30 00:10:50;;;;;;;5.30;2.60;;;22.20;53.30;;;;;;4979570;28;20425;-62
2023/07/30 00:13:18;;;;;;;4.60;2.70;;;22.20;53.50;;;;;;4978549;28;20077;-63
2023/07/30 00:15:48;;;;;;;4.05;2.35;;;22.20;53.30;;;;;;4979333;28;20058;-62
2023/07/30 00:18:17;;;;;;;5.50;2.15;;;22.40;53.40;;;;;;4979297;28;20027;-62
2023/07/30 00:20:44;;;;;;;4.28;2.33;;;22.60;53.20;;;;;;4978388;28;20105;-62
2023/07/30 00:23:12;;;;;;;4.53;1.90;;;22.70;52.80;;;;;;4979159;28;20027;-62
2023/07/30 00:25:40;;;;;;;3.90;1.73;;;22.60;53.10;;;;;;4977922;28;20027;-62
2023/07/30 00:28:07;;;;;;;5.47;2.05;;;23.00;52.20;;;;;;4977749;28;20054;-62
2023/07/30 00:30:35;;;;;;;5.25;2.15;;;22.70;52.40;;;;;;4978742;28;20146;-63
2023/07/30 00:33:02;;;;;;;2.90;1.83;;;23.00;52.30;;;;;;4978977;28;20023;-63
2023/07/30 00:35:30;;;;;;;4.25;1.70;;;23.30;51.50;;;;;;4977843;28;20030;-64
2023/07/30 00:37:57;;;;;;;3.13;1.83;;;23.40;50.80;;;;;;4978671;28;20023;-63
2023/07/30 00:40:25;;;;;;;3.45;1.80;;;23.20;51.50;;;;;;4978716;28;20031;-62
2023/07/30 00:42:53;;;;;;;4.88;2.10;;;23.60;50.70;;;;;;4978589;28;20022;-63
2023/07/30 00:45:20;;;;;;;3.03;1.70;;;23.50;51.50;;;;;;4978649;28;20439;-64
2023/07/30 00:47:48;;;;;;;3.97;2.00;;;24.20;51.90;;;;;;4977431;28;20023;-67
2023/07/30 00:50:17;;;;;;;3.70;2.08;;;24.40;49.90;;;;;;4978513;28;20023;-67
2023/07/30 00:52:45;;;;;;;3.97;2.00;;;23.90;50.20;;;;;;4978512;28;20106;-67
2023/07/30 00:55:13;;;;;;;3.72;1.60;;;24.10;50.90;;;;;;4978533;28;20417;-66
2023/07/30 00:57:42;;;;;;;1.95;1.35;;;23.70;50.80;;;;;;4977544;28;20060;-68
2023/07/30 01:00:11;;;;;;;2.58;1.38;;;24.20;50.30;;;;;;4978569;28;20067;-66
2023/07/30 01:02:38;;;;;;;2.45;1.70;;;24.00;49.60;;;;;;4977493;28;20126;-67
2023/07/30 01:05:07;;;;;;;2.65;1.30;;;24.00;49.90;;;;;;4978291;28;20031;-63
2023/07/30 01:07:34;;;;;;;2.80;1.60;;;24.20;50.80;;;;;;4977227;28;20022;-62
2023/07/30 01:10:03;;;;;;;3.67;1.60;;;24.70;48.50;;;;;;4977740;28;20496;-63
2023/07/30 01:12:33;;;;;;;1.98;1.27;;;24.60;48.80;;;;;;4978167;28;20102;-62
2023/07/30 01:15:02;;;;;;;2.72;1.48;;;24.50;49.00;;;;;;4978156;28;20030;-63
2023/07/30 01:17:29;;;;;;;3.30;1.30;;;24.70;49.50;;;;;;4978211;28;20030;-63
2023/07/30 01:19:57;;;;;;;3.97;1.17;;;24.80;48.70;;;;;;4978140;28;20034;-63
2023/07/30 01:22:25;;;;;;;3.10;1.40;;;25.10;48.00;;;;;;4978106;28;20352;-67
2023/07/30 01:24:52;;;;;;;3.00;1.25;;;25.00;48.30;;;;;;4978117;28;20464;-62
2023/07/30 01:27:26;;;;;;;2.05;1.20;;;25.10;48.10;;;;;;4977188;28;20043;-68
2023/07/30 01:30:07;;;;;;;2.88;1.10;;;25.40;48.00;;;;;;4978017;28;20014;-68
2023/07/30 01:32:35;;;;;;;2.38;1.08;;;25.80;46.50;;;;;;4978252;28;20019;-61
2023/07/30 01:35:04;;;;;;;3.13;1.02;;;26.00;45.80;;;;;;4977860;28;20065;-66
2023/07/30 01:37:33;;;;;;;2.80;1.25;;;25.80;46.10;;;;;;4977791;28;20031;-68
2023/07/30 01:40:01;;;;;;;3.45;1.08;;;25.90;45.80;;;;;;4977855;28;20023;-62
2023/07/30 01:42:32;;;;;;;3.83;1.30;;;25.70;46.50;;;;;;4977806;28;20453;-66
2023/07/30 01:45:00;;;;;;;2.03;1.10;;;26.00;46.40;;;;;;4978132;28;20361;-63
2023/07/30 01:47:28;;;;;;;3.53;1.33;;;26.00;46.40;;;;;;4978115;28;20027;-67
2023/07/30 01:49:55;;;;;;;3.70;1.27;;;25.80;46.70;;;;;;4977281;28;20046;-63
2023/07/30 01:52:23;;;;;;;1.80;1.10;;;25.70;47.70;;;;;;4978381;28;20394;-67
2023/07/30 01:54:50;;;;;;;1.95;1.10;;;25.80;47.70;;;;;;4977950;28;20023;-69
2023/07/30 01:57:18;;;;;;;2.42;1.10;;;25.70;47.30;;;;;;4978134;28;20022;-68
2023/07/30 01:59:46;;;;;;;5.07;1.20;;;26.20;46.00;;;;;;4978679;28;20046;-64
2023/07/30 02:02:13;;;;;;;3.00;1.30;;;26.10;45.40;;;;;;4978343;28;20484;-68
2023/07/30 02:04:41;;;;;;;2.65;1.10;;;26.20;45.50;;;;;;4978398;28;20365;-68
2023/07/30 02:07:08;;;;;;;2.10;1.40;;;26.10;45.20;;;;;;4978032;28;20074;-67
2023/07/30 02:09:36;;;;;;;1.38;0.80;;;26.10;45.20;;;;;;4977708;28;20026;-69
2023/07/30 02:12:03;;;;;;;2.97;1.00;;;26.40;44.60;;;;;;4977502;28;20023;-67
2023/07/30 02:14:32;;;;;;;1.63;0.90;;;26.10;45.00;;;;;;4977711;28;20445;-67
2023/07/30 02:17:00;;;;;;;1.55;1.00;;;25.90;46.20;;;;;;4977290;28;20361;-62
2023/07/30 02:19:27;;;;;;;3.15;0.90;;;25.80;45.60;;;;;;4977340;28;20023;-67
2023/07/30 02:21:55;;;;;;;1.55;0.90;;;26.00;45.00;;;;;;4976387;28;20034;-63
2023/07/30 02:24:23;;;;;;;2.30;0.90;;;26.10;45.00;;;;;;4977318;28;20465;-68
2023/07/30 02:26:50;;;;;;;2.03;1.08;;;26.50;44.40;;;;;;4976558;28;20034;-66
2023/07/30 02:29:18;;;;;;;1.40;0.88;;;26.40;43.90;;;;;;4977057;28;20058;-66
2023/07/30 02:31:46;;;;;;;1.17;0.85;;;26.40;44.10;;;;;;4976927;28;20044;-62
2023/07/30 02:34:13;;;;;;;1.80;1.00;;;26.40;44.30;;;;;;4976964;28;20034;-62
2023/07/30 02:36:41;;;;;;;3.40;0.80;;;26.60;43.80;;;;;;4976515;28;20034;-62
2023/07/30 02:39:08;;;;;;;1.50;1.00;;;26.80;43.30;;;;;;4977486;28;20029;-62
2023/07/30 02:41:36;;;;;;;1.67;0.90;;;26.80;42.80;;;;;;4977285;28;20040;-67
2023/07/30 02:44:04;;;;;;;2.10;1.00;;;27.10;42.90;;;;;;4977027;28;20110;-62
2023/07/30 02:46:31;;;;;;;1.95;0.80;;;27.60;42.10;;;;;;4977026;28;20026;-67
2023/07/30 02:48:59;;;;;;;8.75;4.80;;;27.40;42.10;;;;;;4977328;28;20445;-68
2023/07/30 02:51:27;;;;;;;1.85;0.80;;;27.10;41.80;;;;;;4976836;28;20102;-68
2023/07/30 02:54:02;;;;;;;2.50;1.05;;;26.70;42.70;;;;;;4975446;28;20109;-67
2023/07/30 02:56:29;;;;;;;3.28;1.77;;;26.30;42.90;;;;;;4975414;28;20437;-62
2023/07/30 02:58:58;;;;;;;1.27;0.90;;;27.00;42.40;;;;;;4976428;28;20022;-63
2023/07/30 03:01:26;;;;;;;1.98;0.88;;;27.10;42.00;;;;;;4976459;28;20030;-63
2023/07/30 03:03:53;;;;;;;3.35;1.10;;;27.30;42.50;;;;;;4976525;28;20480;-67
2023/07/30 03:06:21;;;;;;;2.15;0.95;;;26.90;42.30;;;;;;4976372;28;20030;-62
2023/07/30 03:08:49;;;;;;;5.43;3.72;;;26.70;43.10;;;;;;4976571;28;20022;-67
2023/07/30 03:11:16;;;;;;;2.08;1.10;;;27.40;42.50;;;;;;4976560;28;20038;-68
2023/07/30 03:13:44;;;;;;;2.22;0.93;;;27.40;41.60;;;;;;4975453;28;20022;-66
2023/07/30 03:16:11;;;;;;;1.83;1.10;;;27.70;41.40;;;;;;4976368;28;20035;-67
2023/07/30 03:18:39;;;;;;;2.60;1.10;;;27.40;41.30;;;;;;4975183;28;20338;-62
2023/07/30 03:21:06;;;;;;;2.17;0.90;;;27.10;42.30;;;;;;4976982;28;20031;-63
2023/07/30 03:23:34;;;;;;;1.33;1.00;;;27.10;42.50;;;;;;4976231;28;20102;-61
2023/07/30 03:26:01;;;;;;;2.38;1.00;;;27.20;42.90;;;;;;4976880;28;20018;-67
2023/07/30 03:28:29;;;;;;;1.95;1.05;;;27.50;42.20;;;;;;4974939;28;20053;-62
2023/07/30 03:30:56;;;;;;;5.97;2.72;;;27.50;42.30;;;;;;4976535;28;20475;-62
2023/07/30 03:33:24;;;;;;;3.03;1.08;;;27.80;41.60;;;;;;4977071;28;20037;-69
2023/07/30 03:35:52;;;;;;;1.85;0.98;;;27.80;41.30;;;;;;4980143;28;20031;-63
2023/07/30 03:38:19;;;;;;;1.92;1.00;;;27.10;40.50;;;;;;4980456;28;20023;-62
2023/07/30 03:40:47;;;;;;;1.30;0.93;;;27.00;38.70;;;;;;4980109;28;20031;-62
2023/07/30 03:43:14;;;;;;;3.63;1.10;;;26.70;38.60;;;;;;4980362;28;20445;-61
2023/07/30 03:45:42;;;;;;;1.40;1.00;;;26.90;37.80;;;;;;4979051;28;20342;-61
2023/07/30 03:48:09;;;;;;;1.65;0.90;;;27.60;37.70;;;;;;4980483;28;20373;-63
2023/07/30 03:50:37;;;;;;;1.52;0.90;;;27.40;37.50;;;;;;4979219;28;20023;-61
2023/07/30 03:53:04;;;;;;;1.55;0.98;;;27.70;37.40;;;;;;4979028;28;20029;-63
2023/07/30 03:55:32;;;;;;;2.00;1.02;;;27.70;36.90;;;;;;4979497;28;20054;-62
2023/07/30 04:09:48;;;;;;;1.88;1.00;;;27.80;37.10;;;;;;5113947;27;20427;-63
2023/07/30 04:12:19;;;;;;;1.65;1.13;;;27.40;37.30;;;;;;5115791;28;20051;-65
2023/07/30 04:14:46;;;;;;;2.20;1.10;;;27.70;37.30;;;;;;5113087;28;20073;-61
2023/07/30 04:17:14;;;;;;;2.53;1.20;;;27.60;37.30;;;;;;5112890;28;20042;-61
2023/07/30 04:19:41;;;;;;;1.88;0.98;;;27.90;36.90;;;;;;5113178;28;20027;-61
2023/07/30 04:22:09;;;;;;;1.83;1.08;;;28.20;36.60;;;;;;5112833;28;20016;-66
2023/07/30 04:24:37;;;;;;;1.92;1.10;;;27.70;36.80;;;;;;5112635;28;20129;-67
2023/07/30 04:27:04;;;;;;;2.72;1.10;;;27.50;37.40;;;;;;5112370;28;20047;-65
2023/07/30 04:29:32;;;;;;;1.67;1.20;;;28.00;36.60;;;;;;5112141;28;20028;-65
2023/07/30 04:31:59;;;;;;;3.13;1.30;;;27.20;37.20;;;;;;5111380;28;20496;-60
2023/07/30 04:34:27;;;;;;;2.22;1.20;;;27.10;37.70;;;;;;5112048;28;20016;-60
2023/07/30 04:36:54;;;;;;;1.33;1.13;;;27.70;37.60;;;;;;5112392;28;20024;-60
2023/07/30 04:39:22;;;;;;;2.22;1.10;;;27.90;37.30;;;;;;5112406;28;20027;-59
2023/07/30 04:41:49;;;;;;;1.55;1.10;;;27.40;37.10;;;;;;5111408;28;20035;-60
2023/07/30 04:44:17;;;;;;;1.58;0.95;;;27.50;37.50;;;;;;5112669;28;20023;-66
2023/07/30 04:46:44;;;;;;;2.50;1.20;;;27.70;37.50;;;;;;5111188;28;20032;-65
2023/07/30 04:49:12;;;;;;;1.92;1.20;;;27.80;37.00;;;;;;5111148;28;20024;-65
2023/07/30 04:51:40;;;;;;;1.92;1.10;;;27.90;36.70;;;;;;5111861;28;20495;-67
2023/07/30 04:54:08;;;;;;;2.95;1.42;;;27.30;37.50;;;;;;5111057;28;20039;-65
2023/07/30 04:56:35;;;;;;;3.20;1.50;;;27.40;37.10;;;;;;5112024;28;20019;-66
2023/07/30 04:59:03;;;;;;;1.90;1.20;;;27.40;37.30;;;;;;5112282;28;20127;-66
2023/07/30 05:01:31;;;;;;;2.72;1.40;;;27.70;36.80;;;;;;5110812;28;20028;-66
2023/07/30 05:03:58;;;;;;;2.20;1.30;;;27.70;37.40;;;;;;5110925;28;20024;-65
2023/07/30 05:06:26;;;;;;;2.88;1.25;;;27.40;37.20;;;;;;5111771;28;20059;-66
2023/07/30 05:08:54;;;;;;;2.88;1.40;;;27.40;37.70;;;;;;5111118;28;20086;-66
2023/07/30 05:11:21;;;;;;;4.07;2.08;;;27.90;36.90;;;;;;5111570;28;20104;-66
2023/07/30 05:13:49;;;;;;;1.98;1.50;;;27.90;37.00;;;;;;5110530;28;20016;-61
2023/07/30 05:16:17;;;;;;;4.05;2.60;;;28.00;36.80;;;;;;5111847;28;20016;-67
2023/07/30 05:18:44;;;;;;;2.90;2.00;;;27.90;35.90;;;;;;5111718;28;20020;-60
2023/07/30 05:21:12;;;;;;;2.25;1.20;;;28.40;35.70;;;;;;5097532;28;20435;-67
2023/07/30 05:23:39;;;;;;;1.83;1.30;;;28.20;35.10;;;;;;5098034;28;20032;-62
2023/07/30 05:26:07;;;;;;;2.25;1.40;;;27.70;35.80;;;;;;5098093;28;20452;-66
2023/07/30 05:28:35;;;;;;;4.88;3.40;;;28.30;34.90;;;;;;5098121;28;20024;-60
2023/07/30 05:31:02;;;;;;;6.10;3.20;;;28.00;35.60;;;;;;5098200;28;20016;-66
2023/07/30 05:33:30;;;;;;;2.45;1.85;;;28.40;35.30;;;;;;5096124;28;20020;-60
2023/07/30 05:35:57;;;;;;;2.78;2.13;;;29.20;34.40;;;;;;5097315;28;20020;-68
2023/07/30 05:38:25;;;;;;;2.92;1.65;;;29.00;34.60;;;;;;5097012;28;20024;-66
2023/07/30 05:40:52;;;;;;;3.08;2.10;;;28.60;35.20;;;;;;5095442;28;20038;-66
2023/07/30 05:43:20;;;;;;;2.92;1.50;;;28.40;35.10;;;;;;5096716;28;20012;-66
2023/07/30 05:45:47;;;;;;;2.03;1.17;;;28.70;34.80;;;;;;5097269;28;20024;-60
2023/07/30 05:48:15;;;;;;;1.27;1.17;;;28.60;34.90;;;;;;5096126;28;20024;-66
2023/07/30 05:50:42;;;;;;;3.65;1.38;;;28.60;34.90;;;;;;5095951;28;20021;-65
2023/07/30 05:53:10;;;;;;;2.47;1.15;;;28.90;34.40;;;;;;5095955;28;20020;-65
2023/07/30 05:55:38;;;;;;;1.65;1.13;;;28.90;34.60;;;;;;5097134;28;20024;-59
2023/07/30 05:58:05;;;;;;;1.85;1.00;;;29.00;34.60;;;;;;5095821;28;20024;-64
2023/07/30 06:00:33;;;;;;;1.75;1.17;;;29.10;34.20;;;;;;5094532;28;20031;-66
2023/07/30 06:03:01;;;;;;;2.70;1.10;;;29.70;33.50;;;;;;5097824;28;20095;-67
2023/07/30 06:05:28;;;;;;;1.50;0.98;;;29.20;34.00;;;;;;5097548;28;20020;-63
2023/07/30 06:07:56;;;;;;;2.92;1.27;;;28.00;35.60;;;;;;5092921;28;20048;-67
2023/07/30 06:10:24;;;;;;;1.67;1.20;;;26.40;38.00;;;;;;5097184;28;20449;-69
2023/07/30 06:12:51;;;;;;;2.83;1.27;;;25.60;38.90;;;;;;5096300;28;20020;-69
2023/07/30 06:15:19;;;;;;;1.70;1.30;;;25.30;39.30;;;;;;5096624;28;20028;-69
2023/07/30 06:17:46;;;;;;;2.83;1.95;;;25.10;39.70;;;;;;5097073;28;20433;-64
2023/07/30 06:20:15;;;;;;;3.28;1.23;;;25.00;39.60;;;;;;5096215;28;20032;-69
2023/07/30 06:22:43;;;;;;;1.92;1.30;;;24.80;39.30;;;;;;5095977;28;20391;-68
2023/07/30 06:25:10;;;;;;;2.22;1.30;;;24.60;39.80;;;;;;5096005;28;20028;-69
2023/07/30 06:27:38;;;;;;;1.95;1.25;;;24.60;39.10;;;;;;5096783;28;20051;-64
2023/07/30 06:30:06;;;;;;;1.75;1.30;;;24.50;38.60;;;;;;5097059;28;20074;-65
2023/07/30 06:32:37;;;;;;;3.58;1.67;;;24.40;38.20;;;;;;5094729;28;20027;-68
2023/07/30 06:35:05;;;;;;;1.88;1.13;;;24.30;38.80;;;;;;5095875;28;20097;-64
2023/07/30 06:37:34;;;;;;;1.50;1.10;;;24.10;38.90;;;;;;5095655;28;20024;-68
2023/07/30 06:40:05;;;;;;;2.40;1.25;;;24.10;38.50;;;;;;5096626;28;20141;-69
2023/07/30 06:42:33;;;;;;;2.33;1.30;;;24.00;38.80;;;;;;5096865;28;20040;-69
2023/07/30 06:45:01;;;;;;;4.00;1.60;;;23.90;39.00;;;;;;5096813;28;20052;-69
2023/07/30 06:47:29;;;;;;;2.92;1.10;;;23.80;39.10;;;;;;5096830;28;20091;-69
2023/07/30 06:49:56;;;;;;;4.07;2.22;;;23.70;39.00;;;;;;5096511;28;20024;-63
2023/07/30 06:52:24;;;;;;;1.83;1.20;;;23.60;39.40;;;;;;5096731;28;20016;-69
2023/07/30 06:54:51;;;;;;;1.60;1.10;;;23.50;39.90;;;;;;5096493;28;20020;-69
2023/07/30 06:57:19;;;;;;;3.55;1.50;;;23.50;40.10;;;;;;5095334;28;20020;-69
2023/07/30 06:59:46;;;;;;;3.40;1.15;;;23.30;40.00;;;;;;5095052;28;20035;-68
2023/07/30 07:02:17;;;;;;;1.77;1.17;;;23.30;39.80;;;;;;5096628;28;20024;-65
2023/07/30 07:04:45;;;;;;;1.63;1.10;;;23.20;39.90;;;;;;5095239;28;20028;-64
2023/07/30 07:07:12;;;;;;;1.30;1.00;;;23.10;39.90;;;;;;5096979;28;20024;-69
2023/07/30 07:09:40;;;;;;;1.30;1.13;;;23.10;40.20;;;;;;5094957;28;20047;-69
2023/07/30 07:12:08;;;;;;;2.90;1.02;;;23.00;40.30;;;;;;5095013;28;20540;-69
2023/07/30 07:14:36;;;;;;;1.63;1.13;;;22.80;40.40;;;;;;5096154;28;20035;-70
2023/07/30 07:17:03;;;;;;;2.42;1.65;;;22.80;40.60;;;;;;5095208;28;20024;-69
2023/07/30 07:19:33;;;;;;;1.67;1.15;;;22.60;41.20;;;;;;5095033;28;20112;-70
2023/07/30 07:22:01;;;;;;;2.00;1.20;;;22.50;41.30;;;;;;5094918;28;20031;-70
2023/07/30 07:24:28;;;;;;;3.35;1.40;;;22.40;41.50;;;;;;5095965;28;20032;-69
2023/07/30 07:26:56;;;;;;;2.10;1.38;;;22.30;41.60;;;;;;5095676;28;20032;-70
2023/07/30 07:29:23;;;;;;;2.63;1.20;;;22.30;41.80;;;;;;5095711;28;20051;-70
2023/07/30 07:31:51;;;;;;;1.55;1.00;;;22.10;42.00;;;;;;5095552;28;20031;-69
2023/07/30 07:34:18;;;;;;;2.97;1.17;;;22.10;42.30;;;;;;5094574;28;20027;-68
2023/07/30 07:36:46;;;;;;;2.78;1.45;;;22.00;42.60;;;;;;5095930;28;20020;-68
2023/07/30 07:39:14;;;;;;;3.47;1.50;;;21.80;42.80;;;;;;5097627;28;20028;-64
2023/07/30 07:41:41;;;;;;;3.67;1.50;;;21.70;43.20;;;;;;5098913;28;20496;-65
2023/07/30 07:44:09;;;;;;;2.67;1.52;;;21.60;43.50;;;;;;5098332;28;20031;-64
2023/07/30 07:46:37;;;;;;;3.03;1.70;;;21.50;43.80;;;;;;5095513;28;20027;-65
2023/07/30 07:49:04;;;;;;;2.58;1.73;;;21.30;44.30;;;;;;5097802;28;20024;-64
2023/07/30 07:51:32;;;;;;;2.63;1.90;;;21.20;44.60;;;;;;5095516;28;20020;-68
2023/07/30 07:54:00;;;;;;;3.00;1.67;;;21.10;44.80;;;;;;5095705;28;20022;-68
2023/07/30 07:56:27;;;;;;;3.03;1.60;;;20.90;45.40;;;;;;5094296;28;20024;-69
2023/07/30 07:58:55;;;;;;;4.03;1.80;;;20.80;45.40;;;;;;5095095;28;20028;-70
2023/07/30 08:01:23;;;;;;;3.75;2.10;;;20.80;45.40;;;;;;5096301;28;20165;-70
2023/07/30 08:03:51;;;;;;;3.47;1.90;;;20.80;45.30;;;;;;5097460;28;20461;-67
2023/07/30 08:06:18;;;;;;;3.75;1.90;;;20.90;45.40;;;;;;5094275;28;20339;-64
2023/07/30 08:08:46;;;;;;;2.85;1.60;;;20.80;45.20;;;;;;5095171;28;20048;-64
2023/07/30 08:11:14;;;;;;;4.90;1.70;;;20.90;45.10;;;;;;5095524;28;20031;-64
2023/07/30 08:13:41;;;;;;;2.45;1.58;;;20.70;45.60;;;;;;5096387;28;20082;-68
2023/07/30 08:16:09;;;;;;;2.50;1.70;;;20.60;45.60;;;;;;5096129;28;20024;-68
2023/07/30 08:18:37;;;;;;;3.38;1.70;;;20.60;46.10;;;;;;5094975;28;20035;-68
2023/07/30 08:21:04;;;;;;;3.58;1.60;;;20.50;46.20;;;;;;5095199;28;20024;-69
2023/07/30 08:23:32;;;;;;;4.32;1.90;;;20.40;46.60;;;;;;5095067;28;20400;-64
2023/07/30 08:25:59;;;;;;;3.40;2.10;;;20.10;47.60;;;;;;5095039;28;20038;-64
2023/07/30 08:28:27;;;;;;;3.60;2.15;;;20.00;47.60;;;;;;5094846;28;20039;-69
2023/07/30 08:31:04;;;;;;;3.50;1.88;;;19.90;48.10;;;;;;5094932;28;20102;-68
2023/07/30 08:33:32;;;;;;;2.95;2.00;;;19.90;48.10;;;;;;5094227;28;20021;-68
2023/07/30 08:36:00;;;;;;;3.22;1.85;;;19.80;48.30;;;;;;5094210;28;20028;-65
2023/07/30 08:38:30;;;;;;;3.75;2.42;;;19.80;48.50;;;;;;5093794;28;20035;-65
2023/07/30 08:40:58;;;;;;;3.78;1.80;;;19.60;48.70;;;;;;5095362;28;20338;-70
2023/07/30 08:43:26;;;;;;;2.72;1.88;;;19.60;49.00;;;;;;5095000;28;20500;-69
2023/07/30 08:45:53;;;;;;;2.85;1.90;;;19.60;49.10;;;;;;5094703;28;20047;-69
2023/07/30 08:48:21;;;;;;;3.45;2.00;;;19.60;49.30;;;;;;5093519;28;20052;-69
2023/07/30 08:50:50;;;;;;;4.35;1.98;;;19.60;49.40;;;;;;5094467;28;20048;-65
2023/07/30 08:53:19;;;;;;;4.13;2.25;;;19.60;49.70;;;;;;5095179;28;20020;-67
2023/07/30 08:55:47;;;;;;;3.13;2.00;;;19.60;49.80;;;;;;5096063;28;20031;-64
2023/07/30 08:58:17;;;;;;;3.92;1.80;;;19.60;49.90;;;;;;5097264;28;20067;-64
2023/07/30 09:00:45;;;;;;;3.05;1.90;;;19.60;49.90;;;;;;5098193;28;20028;-69
2023/07/30 09:03:15;;;;;;;3.00;1.60;;;19.60;50.20;;;;;;5097387;28;20465;-69
2023/07/30 09:05:43;;;;;;;2.85;1.92;;;19.60;50.40;;;;;;5098293;28;20024;-69
2023/07/30 09:08:12;;;;;;;2.13;1.52;;;19.70;50.30;;;;;;5097818;28;20462;-64
2023/07/30 09:10:40;;;;;;;3.25;1.40;;;19.80;50.40;;;;;;5096890;28;20350;-66
2023/07/30 09:13:07;;;;;;;3.15;1.73;;;19.70;50.50;;;;;;5097093;28;20077;-69
2023/07/30 09:15:40;;;;;;;2.28;1.50;;;19.70;50.80;;;;;;5097982;28;20024;-69
2023/07/30 09:18:08;;;;;;;;;;;19.60;51.10;;;;;;5098533;28;20021;-68
2023/07/30 09:20:40;;;;;;;2.70;1.30;;;19.70;51.10;;;;;;5098258;28;19919;-68
2023/07/30 09:23:09;;;;;;;3.78;1.90;;;19.70;51.20;;;;;;5098167;28;20099;-68
2023/07/30 09:25:40;;;;;;;4.05;1.50;;;19.60;51.90;;;;;;5080819;28;20362;-69
2023/07/30 09:28:08;;;;;;;2.42;1.50;;;19.50;51.70;;;;;;5096961;28;20077;-68
2023/07/30 09:30:35;;;;;;;4.43;1.50;;;19.40;51.70;;;;;;5097020;28;20078;-69
2023/07/30 09:33:03;;;;;;;2.35;1.65;;;19.40;51.80;;;;;;5098134;28;20028;-69
2023/07/30 09:35:34;;;;;;;2.13;1.40;;;19.50;51.60;;;;;;5097994;28;20025;-68
2023/07/30 09:38:03;;;;;;;2.88;1.60;;;19.30;51.60;;;;;;5097829;28;20085;-69
2023/07/30 09:40:36;;;;;;;2.38;1.80;;;19.30;52.10;;;;;;5098090;28;20035;-68
2023/07/30 09:43:05;;;;;;;2.55;1.83;;;19.20;52.00;;;;;;5096828;28;20077;-69
2023/07/30 09:45:37;;;;;;;4.18;1.75;;;19.20;52.10;;;;;;5097874;28;20039;-69
2023/07/30 09:48:06;;;;;;;3.85;1.70;;;19.10;52.40;;;;;;5096719;28;20023;-68
2023/07/30 09:50:38;;;;;;;3.30;1.55;;;19.10;52.40;;;;;;5097717;28;20506;-68
2023/07/30 09:53:06;;;;;;;2.65;1.95;;;19.00;52.50;;;;;;5097111;28;20088;-69
2023/07/30 09:55:33;;;;;;;5.35;1.65;;;19.00;52.30;;;;;;5097928;28;20442;-69
2023/07/30 09:58:01;;;;;;;4.05;1.40;;;19.00;52.50;;;;;;5097615;28;20028;-68
2023/07/30 10:00:30;;;;;;;3.08;1.90;;;18.90;52.50;;;;;;5097680;28;20024;-69
2023/07/30 10:03:02;;;;;;;3.95;1.70;;;19.00;52.50;;;;;;5097034;28;20032;-69
2023/07/30 10:05:36;;;;;;;2.63;1.95;;;18.90;52.50;;;;;;5097777;28;20016;-69
2023/07/30 10:08:15;;;;;;;2.72;1.90;;;18.90;52.60;;;;;;5096770;28;20044;-69
2023/07/30 10:10:44;;;;;;;3.10;1.83;;;18.70;52.80;;;;;;5097578;28;20044;-68
2023/07/30 10:13:13;;;;;;;4.40;1.80;;;18.70;52.90;;;;;;5096435;28;20024;-68
2023/07/30 10:15:40;;;;;;;3.22;1.80;;;18.70;53.00;;;;;;5096930;28;20024;-65
2023/07/30 10:18:08;;;;;;;3.00;1.90;;;18.60;53.20;;;;;;5097325;28;20028;-65
2023/07/30 10:20:37;;;;;;;4.72;1.92;;;18.60;53.40;;;;;;5097277;28;20047;-63
2023/07/30 10:23:05;;;;;;;3.00;1.73;;;18.60;53.40;;;;;;5096096;28;20051;-69
2023/07/30 10:25:48;;;;;;;3.63;1.95;;;18.50;53.50;;;;;;5096189;28;20507;-64
2023/07/30 10:28:33;;;;;;;3.55;1.83;;;18.40;53.80;;;;;;5095819;28;20114;-65
2023/07/30 10:31:08;;;;;;;3.72;1.90;;;18.30;54.00;;;;;;5096057;28;20024;-65
2023/07/30 10:33:53;;;;;;;3.95;2.05;;;18.20;54.20;;;;;;5095885;28;20032;-66
2023/07/30 10:36:56;;;;;;;4.45;1.95;;;18.10;54.30;;;;;;5095956;28;20021;-65
2023/07/30 10:39:33;;;;;;;2.35;1.60;;;18.10;54.80;;;;;;5055007;28;20107;-65
2023/07/30 10:42:01;;;;;;;3.13;2.00;;;18.00;54.90;;;;;;5091500;28;20028;-69
2023/07/30 10:44:33;;;;;;;5.80;2.35;;;18.00;55.00;;;;;;5097028;28;20016;-69
2023/07/30 10:47:03;;;;;;;3.92;1.70;;;18.00;55.10;;;;;;5096313;28;20027;-69
2023/07/30 10:49:37;;;;;;;3.55;2.20;;;17.90;55.40;;;;;;5095406;28;20462;-69
2023/07/30 10:52:05;;;;;;;3.30;1.80;;;18.00;55.40;;;;;;5095592;28;20070;-69
2023/07/30 10:54:37;;;;;;;3.40;1.90;;;17.90;55.50;;;;;;5095259;28;20020;-69
2023/07/30 10:57:04;;;;;;;2.95;2.30;;;17.90;55.80;;;;;;5096179;28;20107;-66
2023/07/30 10:59:40;;;;;;;5.30;2.38;;;17.80;55.80;;;;;;5096494;28;20043;-64
2023/07/30 11:02:08;;;;;;;4.38;2.15;;;17.70;56.20;;;;;;5095164;28;20035;-69
2023/07/30 11:04:36;;;;;;;3.58;1.98;;;17.60;56.70;;;;;;5096189;28;20128;-69
2023/07/30 11:07:04;;;;;;;5.05;2.38;;;17.50;57.00;;;;;;5095212;28;20035;-69
2023/07/30 11:09:31;;;;;;;3.92;1.95;;;17.20;58.20;;;;;;5095032;28;20055;-69
2023/07/30 11:11:59;;;;;;;6.03;2.13;;;17.00;59.60;;;;;;5096266;28;20032;-66
2023/07/30 11:14:27;;;;;;;3.53;1.85;;;16.80;60.20;;;;;;5096127;28;20016;-65
2023/07/30 11:17:00;;;;;;;2.97;2.00;;;16.60;60.10;;;;;;5094863;28;20031;-65
2023/07/30 11:19:30;;;;;;;4.75;2.28;;;16.40;61.10;;;;;;5094841;28;20056;-64
2023/07/30 11:21:58;;;;;;;2.63;1.90;;;16.10;62.30;;;;;;5095974;28;20376;-64
2023/07/30 11:24:36;;;;;;;3.88;1.90;;;16.10;62.10;;;;;;5095359;28;20077;-69
2023/07/30 11:27:04;;;;;;;3.78;1.83;;;16.00;62.20;;;;;;5095085;28;20413;-68
2023/07/30 11:29:32;;;;;;;3.55;2.13;;;16.00;62.50;;;;;;5095512;28;20024;-68
2023/07/30 11:32:02;;;;;;;4.63;2.08;;;16.00;62.80;;;;;;5094710;28;20129;-68
2023/07/30 11:34:31;;;;;;;4.78;2.10;;;15.90;63.20;;;;;;5095710;28;20092;-69
2023/07/30 11:36:59;;;;;;;3.72;1.95;;;15.80;63.50;;;;;;5094429;28;20369;-69
2023/07/30 11:39:28;;;;;;;2.97;2.22;;;15.60;64.40;;;;;;5094827;28;20027;-65
2023/07/30 11:41:56;;;;;;;5.03;2.05;;;15.70;64.00;;;;;;5095727;28;20035;-65
2023/07/30 11:44:38;;;;;;;3.88;2.10;;;15.80;63.70;;;;;;5094593;28;20462;-65
2023/07/30 11:47:05;;;;;;;;;;;15.90;63.50;;;;;;5095002;28;20331;-64
2023/07/30 11:49:33;;;;;;;3.70;2.53;;;15.70;64.00;;;;;;5095475;28;19912;-65
2023/07/30 11:52:08;;;;;;;3.40;1.92;;;15.40;65.10;;;;;;5094400;28;20111;-64
2023/07/30 11:54:36;;;;;;;3.72;2.13;;;15.50;64.80;;;;;;5094537;28;20107;-64
2023/07/30 11:57:04;;;;;;;4.72;2.10;;;15.50;64.70;;;;;;5094292;28;20074;-64
2023/07/30 11:59:36;;;;;;;3.25;2.17;;;15.60;64.70;;;;;;5095294;28;20027;-65
2023/07/30 12:02:03;;;;;;;3.72;2.13;;;15.50;64.90;;;;;;5095296;28;20028;-64
2023/07/30 12:04:46;;;;;;;3.33;1.85;;;15.60;64.90;;;;;;5095099;28;20032;-64
2023/07/30 12:07:24;;;;;;;3.60;2.25;;;15.50;64.70;;;;;;5094154;28;20024;-65
2023/07/30 12:09:52;;;;;;;4.75;2.10;;;15.50;64.80;;;;;;5095050;28;20040;-68
2023/07/30 12:12:19;;;;;;;3.17;1.92;;;15.30;65.80;;;;;;5094064;28;20028;-68
2023/07/30 12:14:50;;;;;;;3.65;2.20;;;15.00;67.00;;;;;;5094757;28;20091;-68
2023/07/30 12:17:18;;;;;;;4.95;2.40;;;14.80;67.40;;;;;;5095111;28;20111;-68
2023/07/30 12:19:45;;;;;;;4.65;2.50;;;14.60;68.40;;;;;;5094742;28;20103;-69
2023/07/30 12:22:13;;;;;;;3.88;2.22;;;14.60;67.70;;;;;;5093184;28;20020;-66
2023/07/30 12:24:41;;;;;;;4.13;2.58;;;14.70;67.60;;;;;;5094367;28;20051;-65
2023/07/30 12:27:08;;;;;;;3.60;2.40;;;14.70;67.80;;;;;;5095389;28;20028;-68
2023/07/30 12:29:36;;;;;;;3.42;2.47;;;14.40;69.00;;;;;;5094268;28;20043;-68
2023/07/30 12:32:04;;;;;;;5.03;2.40;;;14.10;69.60;;;;;;5098678;28;20044;-68
2023/07/30 12:34:31;;;;;;;5.95;2.58;;;14.00;69.50;;;;;;5098911;28;20016;-68
2023/07/30 12:36:59;;;;;;;3.65;2.10;;;14.00;69.90;;;;;;5098894;28;20016;-69
2023/07/30 12:39:27;;;;;;;3.45;2.20;;;14.00;70.50;;;;;;5098259;28;20057;-69
2023/07/30 12:41:54;;;;;;;3.47;2.50;;;13.60;71.30;;;;;;5098802;28;20028;-69
2023/07/30 12:44:22;;;;;;;4.40;2.17;;;13.60;71.80;;;;;;5098292;28;20345;-65
2023/07/30 12:46:50;;;;;;;5.00;2.20;;;13.50;71.40;;;;;;5098550;28;20050;-64
2023/07/30 12:49:18;;;;;;;5.30;2.28;;;13.50;71.80;;;;;;5097628;28;20098;-65
2023/07/30 12:51:45;;;;;;;3.75;2.42;;;13.40;72.20;;;;;;5097372;28;20353;-64
2023/07/30 12:54:13;;;;;;;4.03;2.15;;;13.40;72.20;;;;;;5097818;28;20020;-65
2023/07/30 12:56:40;;;;;;;4.38;2.05;;;13.30;72.10;;;;;;5098706;28;20457;-65
2023/07/30 12:59:08;;;;;;;4.60;2.30;;;13.40;71.50;;;;;;5097649;28;20032;-65
2023/07/30 13:01:35;;;;;;;5.20;2.30;;;13.40;71.00;;;;;;5098679;28;20481;-67
2023/07/30 13:04:03;;;;;;;5.38;2.30;;;13.50;70.70;;;;;;5097667;28;20070;-68
2023/07/30 13:06:30;;;;;;;3.85;2.10;;;13.50;70.10;;;;;;5098536;28;20515;-68